Time;durP1;ratioP1;P1;durP2;ratioP2;P2;SDS_P1;SDS_P2;PMS_P1;PMS_P2;Temp;Humidity;BMP_temperature;BMP_pressure;BME280_temperature;BME280_humidity;BME280_pressure;Samples;Min_cycle;Max_cycle;Signal;HPM_P1;HPM_P2
2023/04/06 00:00:41;;;;;;;33.20;22.97;;;;;;;;;;5111817;28;20692;-80
2023/04/06 00:03:08;;;;;;;35.83;22.63;;;;;;;;;;5111743;28;20239;-80
2023/04/06 00:05:36;;;;;;;32.10;22.80;;;;;;;;;;5111595;28;20565;-81
2023/04/06 00:08:03;;;;;;;31.30;22.33;;;;;;;;;;5111170;28;20616;-81
2023/04/06 00:10:30;;;;;;;35.30;23.47;;;;;;;;;;5111486;28;20194;-81
2023/04/06 00:12:57;;;;;;;34.03;22.97;;;;;;;;;;5111553;28;20190;-80
2023/04/06 00:15:26;;;;;;;32.10;22.60;;;;;;;;;;5111568;28;20226;-80
2023/04/06 00:17:53;;;;;;;32.73;23.10;;;;;;;;;;5111585;28;20194;-82
2023/04/06 00:20:21;;;;;;;33.83;22.77;;;;;;;;;;5111423;28;20326;-80
2023/04/06 00:22:48;;;;;;;34.93;23.57;;;;;;;;;;5111258;28;20286;-80
2023/04/06 00:25:16;;;;;;;35.80;23.07;;;;;;;;;;5111369;28;20246;-80
2023/04/06 00:27:43;;;;;;;34.03;23.10;;;;;;;;;;5111762;28;20198;-81
2023/04/06 00:30:11;;;;;;;37.00;23.83;;;;;;;;;;5111259;28;20195;-81
2023/04/06 00:32:39;;;;;;;32.07;22.40;;;;;;;;;;5111717;28;20194;-81
2023/04/06 00:35:07;;;;;;;35.10;23.27;;;;;;;;;;5112008;28;20195;-80
2023/04/06 00:37:34;;;;;;;34.23;22.97;;;;;;;;;;5110453;28;20202;-81
2023/04/06 00:40:02;;;;;;;33.93;23.90;;;;;;;;;;5110881;28;20622;-81
2023/04/06 00:42:29;;;;;;;29.67;21.90;;;;;;;;;;5111335;28;20196;-81
2023/04/06 00:44:57;;;;;;;35.70;24.33;;;;;;;;;;5111528;28;20614;-81
2023/04/06 00:47:25;;;;;;;34.77;22.90;;;;;;;;;;5110802;28;20234;-81
2023/04/06 00:49:54;;;;;;;33.80;22.67;;;;;;;;;;5111155;28;20198;-81
2023/04/06 00:52:21;;;;;;;33.13;23.60;;;;;;;;;;5110955;28;20203;-81
2023/04/06 00:54:49;;;;;;;34.20;22.90;;;;;;;;;;5111143;28;20555;-82
2023/04/06 00:57:16;;;;;;;35.77;23.63;;;;;;;;;;5111431;28;20282;-81
2023/04/06 00:59:44;;;;;;;33.33;22.23;;;;;;;;;;5111069;28;20193;-81
2023/04/06 01:02:11;;;;;;;31.53;21.53;;;;;;;;;;5111064;28;20255;-81
2023/04/06 01:04:38;;;;;;;34.10;22.90;;;;;;;;;;5110603;28;20198;-80
2023/04/06 01:07:07;;;;;;;33.50;22.77;;;;;;;;;;5113128;28;20217;-80
2023/04/06 01:09:34;;;;;;;34.23;23.33;;;;;;;;;;5115050;28;20254;-81
2023/04/06 01:12:01;;;;;;;33.07;23.43;;;;;;;;;;5114935;28;20201;-81
2023/04/06 01:14:29;;;;;;;37.13;24.13;;;;;;;;;;5114578;28;20682;-81
2023/04/06 01:16:59;;;;;;;35.93;24.07;;;;;;;;;;5114915;28;20278;-81
2023/04/06 01:19:26;;;;;;;33.93;22.57;;;;;;;;;;5115043;28;20282;-80
2023/04/06 01:21:54;;;;;;;34.40;22.87;;;;;;;;;;5114457;28;20208;-80
2023/04/06 01:24:22;;;;;;;30.67;21.83;;;;;;;;;;5114693;28;20190;-81
2023/04/06 01:26:50;;;;;;;32.57;22.93;;;;;;;;;;5114408;28;20198;-81
2023/04/06 01:29:17;;;;;;;33.57;23.13;;;;;;;;;;5114552;28;20626;-81
2023/04/06 01:31:44;;;;;;;36.63;23.60;;;;;;;;;;5114472;28;20189;-80
2023/04/06 01:34:12;;;;;;;34.43;23.23;;;;;;;;;;5113824;28;20631;-81
2023/04/06 01:36:39;;;;;;;34.40;23.37;;;;;;;;;;5114243;28;20224;-81
2023/04/06 01:39:06;;;;;;;32.80;23.77;;;;;;;;;;5105187;28;20244;-81
2023/04/06 01:41:35;;;;;;;34.87;23.87;;;;;;;;;;5109710;28;20621;-81
2023/04/06 01:44:02;;;;;;;36.20;23.90;;;;;;;;;;5114413;28;20254;-80
2023/04/06 01:46:30;;;;;;;34.20;23.27;;;;;;;;;;5114859;28;20308;-80
2023/04/06 01:48:57;;;;;;;36.23;24.70;;;;;;;;;;5113466;28;20293;-82
2023/04/06 01:51:25;;;;;;;37.17;24.07;;;;;;;;;;5114286;28;20230;-81
2023/04/06 01:53:52;;;;;;;37.07;24.23;;;;;;;;;;5114416;28;20299;-81
2023/04/06 01:56:20;;;;;;;33.63;23.57;;;;;;;;;;5114328;28;20357;-80
2023/04/06 01:58:48;;;;;;;33.50;22.97;;;;;;;;;;5114055;28;20195;-81
2023/04/06 02:01:15;;;;;;;33.70;23.67;;;;;;;;;;5113660;28;20225;-81
2023/04/06 02:03:43;;;;;;;33.57;22.80;;;;;;;;;;5114058;28;20196;-81
2023/04/06 02:06:10;;;;;;;38.17;24.50;;;;;;;;;;5114385;28;20194;-81
2023/04/06 02:08:37;;;;;;;36.03;24.13;;;;;;;;;;5114145;28;20197;-80
2023/04/06 02:11:04;;;;;;;33.37;23.50;;;;;;;;;;5114096;28;20225;-81
2023/04/06 02:13:34;;;;;;;37.20;24.67;;;;;;;;;;5112926;28;20205;-81
2023/04/06 02:16:03;;;;;;;35.03;24.07;;;;;;;;;;5112543;28;20232;-80
2023/04/06 02:18:31;;;;;;;35.77;23.87;;;;;;;;;;5111626;28;20287;-81
2023/04/06 02:20:58;;;;;;;36.40;24.30;;;;;;;;;;5113414;28;20200;-81
2023/04/06 02:23:26;;;;;;;35.07;23.07;;;;;;;;;;5112371;28;20198;-81
2023/04/06 02:25:53;;;;;;;37.00;23.80;;;;;;;;;;5112994;28;20201;-81
2023/04/06 02:28:21;;;;;;;36.90;24.23;;;;;;;;;;5113989;28;20203;-80
2023/04/06 02:30:48;;;;;;;34.57;23.07;;;;;;;;;;5113201;28;20666;-79
2023/04/06 02:33:16;;;;;;;35.90;22.80;;;;;;;;;;5112972;28;20189;-80
2023/04/06 02:35:46;;;;;;;35.50;23.70;;;;;;;;;;5112723;28;20197;-81
2023/04/06 02:38:13;;;;;;;33.87;23.17;;;;;;;;;;5113837;28;20209;-80
2023/04/06 02:40:40;;;;;;;32.77;22.70;;;;;;;;;;5113399;28;20654;-81
2023/04/06 02:43:07;;;;;;;34.27;23.73;;;;;;;;;;5113265;28;20254;-81
2023/04/06 02:45:35;;;;;;;35.23;23.53;;;;;;;;;;5113076;28;20554;-81
2023/04/06 02:48:02;;;;;;;32.50;23.10;;;;;;;;;;5113037;28;20241;-80
2023/04/06 02:50:30;;;;;;;35.07;23.77;;;;;;;;;;5112975;28;20194;-81
2023/04/06 02:52:58;;;;;;;38.33;24.53;;;;;;;;;;5112954;28;20334;-81
2023/04/06 02:55:25;;;;;;;38.27;24.53;;;;;;;;;;5113405;28;20192;-81
2023/04/06 02:57:52;;;;;;;34.53;23.37;;;;;;;;;;5112491;28;20250;-81
2023/04/06 03:00:20;;;;;;;34.03;24.23;;;;;;;;;;5113220;28;20204;-81
2023/04/06 03:02:48;;;;;;;35.00;24.13;;;;;;;;;;5112060;28;20720;-83
2023/04/06 03:05:15;;;;;;;37.13;24.63;;;;;;;;;;5112645;28;20201;-82
2023/04/06 03:07:44;;;;;;;34.97;23.70;;;;;;;;;;5112761;28;20295;-82
2023/04/06 03:10:11;;;;;;;35.50;24.50;;;;;;;;;;5112383;28;20205;-81
2023/04/06 03:12:38;;;;;;;36.00;24.33;;;;;;;;;;5112563;28;20200;-82
2023/04/06 03:15:06;;;;;;;36.23;23.90;;;;;;;;;;5112168;28;20190;-81
2023/04/06 03:17:34;;;;;;;36.20;23.63;;;;;;;;;;5112589;28;20313;-82
2023/04/06 03:20:01;;;;;;;39.87;25.03;;;;;;;;;;5111589;28;20216;-81
2023/04/06 03:22:28;;;;;;;34.57;24.47;;;;;;;;;;5111910;28;20667;-79
2023/04/06 03:24:57;;;;;;;35.83;24.63;;;;;;;;;;5112338;28;20194;-82
2023/04/06 03:27:24;;;;;;;35.47;23.83;;;;;;;;;;5112521;28;20198;-82
2023/04/06 03:29:51;;;;;;;35.20;23.40;;;;;;;;;;5111722;28;20198;-82
2023/04/06 03:32:18;;;;;;;36.93;23.50;;;;;;;;;;5112172;28;20237;-82
2023/04/06 03:34:46;;;;;;;31.10;23.10;;;;;;;;;;5111708;28;20194;-82
2023/04/06 03:37:13;;;;;;;34.67;23.73;;;;;;;;;;5111488;28;20268;-82
2023/04/06 03:39:40;;;;;;;33.47;22.87;;;;;;;;;;5111881;28;20201;-82
2023/04/06 03:42:09;;;;;;;32.53;22.47;;;;;;;;;;5112158;28;20235;-82
2023/04/06 03:44:36;;;;;;;35.40;23.73;;;;;;;;;;5111465;28;20600;-81
2023/04/06 03:47:04;;;;;;;31.50;22.70;;;;;;;;;;5111705;28;20206;-81
2023/04/06 03:49:31;;;;;;;33.00;22.90;;;;;;;;;;5112219;28;20255;-82
2023/04/06 03:51:58;;;;;;;32.50;22.53;;;;;;;;;;5111955;28;20548;-81
2023/04/06 03:54:25;;;;;;;31.47;21.83;;;;;;;;;;5111654;28;20696;-81
2023/04/06 03:56:53;;;;;;;33.53;22.40;;;;;;;;;;5111523;28;20229;-82
2023/04/06 03:59:21;;;;;;;33.63;22.43;;;;;;;;;;5111559;28;20245;-82
2023/04/06 04:01:48;;;;;;;35.53;21.73;;;;;;;;;;5111909;28;20615;-82
2023/04/06 04:04:16;;;;;;;30.93;21.00;;;;;;;;;;5111754;28;20297;-82
2023/04/06 04:06:43;;;;;;;31.27;21.77;;;;;;;;;;5111516;28;20264;-80
2023/04/06 04:09:10;;;;;;;32.27;21.60;;;;;;;;;;5111380;28;20668;-82
2023/04/06 04:11:37;;;;;;;31.17;21.70;;;;;;;;;;5111618;28;20225;-81
2023/04/06 04:14:05;;;;;;;30.60;22.10;;;;;;;;;;5110893;28;20203;-82
2023/04/06 04:16:33;;;;;;;33.70;22.40;;;;;;;;;;5111789;28;20697;-80
2023/04/06 04:19:01;;;;;;;30.13;21.50;;;;;;;;;;5111674;28;20247;-81
2023/04/06 04:21:31;;;;;;;32.03;20.63;;;;;;;;;;5110790;28;20193;-82
2023/04/06 04:23:58;;;;;;;31.20;20.43;;;;;;;;;;5111499;28;20198;-82
2023/04/06 04:26:26;;;;;;;32.70;21.40;;;;;;;;;;5111602;28;20190;-82
2023/04/06 04:28:53;;;;;;;28.67;21.13;;;;;;;;;;5111007;28;20369;-81
2023/04/06 04:31:22;;;;;;;29.50;20.77;;;;;;;;;;5111174;28;20243;-82
2023/04/06 04:33:50;;;;;;;32.80;21.33;;;;;;;;;;5111283;28;20654;-82
2023/04/06 04:36:18;;;;;;;29.33;20.17;;;;;;;;;;5111293;28;20554;-81
2023/04/06 04:38:45;;;;;;;29.77;20.33;;;;;;;;;;5111531;28;20195;-81
2023/04/06 04:41:12;;;;;;;31.60;21.73;;;;;;;;;;5112428;28;20225;-82
2023/04/06 04:43:39;;;;;;;30.50;20.53;;;;;;;;;;5115416;28;20197;-82
2023/04/06 04:46:06;;;;;;;28.73;20.57;;;;;;;;;;5115657;28;20209;-81
2023/04/06 04:48:34;;;;;;;30.30;21.13;;;;;;;;;;5115238;28;20282;-81
2023/04/06 04:51:03;;;;;;;27.80;19.60;;;;;;;;;;5115575;28;20194;-82
2023/04/06 04:53:30;;;;;;;30.23;21.37;;;;;;;;;;5115315;28;20233;-82
2023/04/06 04:55:57;;;;;;;27.47;20.43;;;;;;;;;;5115296;28;20194;-82
2023/04/06 04:58:25;;;;;;;30.63;20.67;;;;;;;;;;5115125;28;20229;-82
2023/04/06 05:00:52;;;;;;;27.73;19.47;;;;;;;;;;5114805;28;20715;-81
2023/04/06 05:03:21;;;;;;;25.70;19.27;;;;;;;;;;5115279;28;20225;-81
2023/04/06 05:05:48;;;;;;;26.17;18.20;;;;;;;;;;5115150;28;20923;-82
2023/04/06 05:08:17;;;;;;;26.97;18.17;;;;;;;;;;5115163;28;20198;-81
2023/04/06 05:10:45;;;;;;;26.07;19.40;;;;;;;;;;5114979;28;20213;-82
2023/04/06 05:13:12;;;;;;;25.90;18.07;;;;;;;;;;5114382;28;20668;-80
2023/04/06 05:15:40;;;;;;;29.10;19.00;;;;;;;;;;5115321;28;20200;-81
2023/04/06 05:18:07;;;;;;;26.37;18.60;;;;;;;;;;5114549;28;20236;-82
2023/04/06 05:20:34;;;;;;;27.27;17.97;;;;;;;;;;5114525;28;20566;-81
2023/04/06 05:23:01;;;;;;;23.63;17.40;;;;;;;;;;5114855;28;20243;-81
2023/04/06 05:25:30;;;;;;;27.30;18.67;;;;;;;;;;5108830;28;20202;-81
2023/04/06 05:27:57;;;;;;;26.37;18.17;;;;;;;;;;5093625;28;20244;-80
2023/04/06 05:30:25;;;;;;;26.00;17.53;;;;;;;;;;5094413;28;20222;-80
2023/04/06 05:32:52;;;;;;;25.23;17.30;;;;;;;;;;5103453;28;20205;-80
2023/04/06 05:35:20;;;;;;;25.67;18.23;;;;;;;;;;5103985;28;20233;-80
2023/04/06 05:37:47;;;;;;;27.10;17.97;;;;;;;;;;5093944;28;20228;-78
2023/04/06 05:40:15;;;;;;;22.93;17.37;;;;;;;;;;5093968;28;20205;-79
2023/04/06 05:42:44;;;;;;;26.63;17.87;;;;;;;;;;5094542;28;20293;-79
2023/04/06 05:45:16;;;;;;;24.97;17.53;;;;;;;;;;5107897;28;20302;-79
2023/04/06 05:47:43;;;;;;;25.80;18.17;;;;;;;;;;5113608;28;20237;-79
2023/04/06 05:50:11;;;;;;;24.03;17.93;;;;;;;;;;5108248;28;20254;-78
2023/04/06 05:52:38;;;;;;;25.70;17.33;;;;;;;;;;5113351;28;20220;-77
2023/04/06 05:55:06;;;;;;;24.10;17.87;;;;;;;;;;5114358;28;20229;-79
2023/04/06 05:57:33;;;;;;;25.33;18.10;;;;;;;;;;5113906;28;20258;-79
2023/04/06 06:00:03;;;;;;;27.57;18.13;;;;;;;;;;5114346;28;20643;-79
2023/04/06 06:02:32;;;;;;;28.33;20.40;;;;;;;;;;5113907;28;20673;-79
2023/04/06 06:04:59;;;;;;;25.40;18.53;;;;;;;;;;5114297;28;20204;-79
2023/04/06 06:07:26;;;;;;;29.17;19.10;;;;;;;;;;5114661;28;20197;-78
2023/04/06 06:09:54;;;;;;;25.57;18.40;;;;;;;;;;5113813;28;20255;-78
2023/04/06 06:12:21;;;;;;;25.80;19.00;;;;;;;;;;5114035;28;20223;-79
2023/04/06 06:14:48;;;;;;;25.80;18.20;;;;;;;;;;5114283;28;20203;-79
2023/04/06 06:17:17;;;;;;;28.77;18.57;;;;;;;;;;5114157;28;20774;-79
2023/04/06 06:19:44;;;;;;;24.70;16.93;;;;;;;;;;5113827;28;20615;-79
2023/04/06 06:22:11;;;;;;;26.27;17.70;;;;;;;;;;5114006;28;20198;-79
2023/04/06 06:24:38;;;;;;;24.47;17.43;;;;;;;;;;5113547;28;20618;-79
2023/04/06 06:27:07;;;;;;;24.97;17.53;;;;;;;;;;5113903;28;20182;-79
2023/04/06 06:29:35;;;;;;;27.13;18.43;;;;;;;;;;5114118;28;20559;-79
2023/04/06 06:32:02;;;;;;;26.37;18.57;;;;;;;;;;5113988;28;20196;-79
2023/04/06 06:34:30;;;;;;;23.87;17.70;;;;;;;;;;5113462;28;20269;-79
2023/04/06 06:36:58;;;;;;;26.53;17.30;;;;;;;;;;5113693;28;20221;-80
2023/04/06 06:39:25;;;;;;;25.53;17.00;;;;;;;;;;5113258;28;20198;-79
2023/04/06 06:41:54;;;;;;;22.93;17.77;;;;;;;;;;5114186;28;20261;-80
2023/04/06 06:44:21;;;;;;;23.63;16.83;;;;;;;;;;5113935;28;20204;-79
2023/04/06 06:46:48;;;;;;;23.93;16.50;;;;;;;;;;5113654;28;20635;-79
2023/04/06 06:49:15;;;;;;;25.97;16.37;;;;;;;;;;5114108;28;20201;-77
2023/04/06 06:51:45;;;;;;;23.80;15.67;;;;;;;;;;5113673;28;20209;-79
2023/04/06 06:54:13;;;;;;;25.00;16.37;;;;;;;;;;5113795;28;20201;-80
2023/04/06 06:56:40;;;;;;;22.43;16.20;;;;;;;;;;5113416;28;20251;-79
2023/04/06 06:59:07;;;;;;;21.13;16.30;;;;;;;;;;5113042;28;20214;-78
2023/04/06 07:01:35;;;;;;;21.63;15.20;;;;;;;;;;5112959;28;20190;-79
2023/04/06 07:04:02;;;;;;;23.20;16.10;;;;;;;;;;5112725;28;20569;-79
2023/04/06 07:06:29;;;;;;;20.63;15.10;;;;;;;;;;5113104;28;20200;-79
2023/04/06 07:08:58;;;;;;;21.37;14.30;;;;;;;;;;5112211;28;20239;-78
2023/04/06 07:11:26;;;;;;;21.17;14.70;;;;;;;;;;5112964;28;20201;-79
2023/04/06 07:13:53;;;;;;;19.83;13.90;;;;;;;;;;5112805;28;20198;-79
2023/04/06 07:16:20;;;;;;;21.60;14.13;;;;;;;;;;5113278;28;20197;-79
2023/04/06 07:18:47;;;;;;;17.70;13.33;;;;;;;;;;5113206;28;20633;-79
2023/04/06 07:21:14;;;;;;;16.97;13.30;;;;;;;;;;5113292;28;20195;-79
2023/04/06 07:23:42;;;;;;;17.67;12.93;;;;;;;;;;5113107;28;20254;-79
2023/04/06 07:26:10;;;;;;;15.57;13.37;;;;;;;;;;5113250;28;20220;-79
2023/04/06 07:28:37;;;;;;;16.93;12.60;;;;;;;;;;5113335;28;20225;-79
2023/04/06 07:31:05;;;;;;;16.50;12.23;;;;;;;;;;5113186;28;20199;-78
2023/04/06 07:33:32;;;;;;;17.57;13.03;;;;;;;;;;5112578;28;20208;-79
2023/04/06 07:35:59;;;;;;;16.93;12.90;;;;;;;;;;5112393;28;20555;-75
2023/04/06 07:38:26;;;;;;;16.93;12.30;;;;;;;;;;5112012;28;20228;-79
2023/04/06 07:40:54;;;;;;;17.10;12.10;;;;;;;;;;5112370;28;20246;-76
2023/04/06 07:43:22;;;;;;;15.53;11.73;;;;;;;;;;5112488;28;20194;-77
2023/04/06 07:45:50;;;;;;;16.67;11.47;;;;;;;;;;5112082;28;20202;-78
2023/04/06 07:48:17;;;;;;;17.70;12.93;;;;;;;;;;5112460;28;20698;-78
2023/04/06 07:50:44;;;;;;;16.70;12.33;;;;;;;;;;5111988;28;20753;-77
2023/04/06 07:53:11;;;;;;;18.00;12.37;;;;;;;;;;5112319;28;20212;-78
2023/04/06 07:55:39;;;;;;;15.67;11.33;;;;;;;;;;5112461;28;20201;-77
2023/04/06 07:58:06;;;;;;;16.13;12.57;;;;;;;;;;5112072;28;20213;-78
2023/04/06 08:00:35;;;;;;;15.43;11.50;;;;;;;;;;5112585;28;20194;-78
2023/04/06 08:03:02;;;;;;;15.73;11.63;;;;;;;;;;5111990;28;20190;-79
2023/04/06 08:05:29;;;;;;;16.33;11.57;;;;;;;;;;5111303;28;20198;-78
2023/04/06 08:07:56;;;;;;;17.23;11.43;;;;;;;;;;5111550;28;20205;-77
2023/04/06 08:10:24;;;;;;;13.77;11.17;;;;;;;;;;5111598;28;20201;-78
2023/04/06 08:12:51;;;;;;;14.47;11.67;;;;;;;;;;5111965;28;20251;-78
2023/04/06 08:15:19;;;;;;;14.10;11.83;;;;;;;;;;5111928;28;20194;-78
2023/04/06 08:17:47;;;;;;;14.27;11.97;;;;;;;;;;5111817;28;20298;-78
2023/04/06 08:20:14;;;;;;;13.43;10.67;;;;;;;;;;5111300;28;20193;-78
2023/04/06 08:22:42;;;;;;;12.07;10.53;;;;;;;;;;5111896;28;20222;-78
2023/04/06 08:25:09;;;;;;;15.27;10.83;;;;;;;;;;5111840;28;20197;-77
2023/04/06 08:27:36;;;;;;;13.93;10.60;;;;;;;;;;5111791;28;20201;-78
2023/04/06 08:30:04;;;;;;;15.97;11.23;;;;;;;;;;5112240;28;20201;-78
2023/04/06 08:32:31;;;;;;;15.73;10.90;;;;;;;;;;5111937;28;20201;-78
2023/04/06 08:35:00;;;;;;;15.30;10.87;;;;;;;;;;5111517;28;20227;-79
2023/04/06 08:37:27;;;;;;;14.60;11.60;;;;;;;;;;5111600;28;20349;-78
2023/04/06 08:39:54;;;;;;;18.17;11.10;;;;;;;;;;5112142;28;20197;-77
2023/04/06 08:42:22;;;;;;;16.70;11.37;;;;;;;;;;5111697;28;20194;-77
2023/04/06 08:44:52;;;;;;;14.97;11.00;;;;;;;;;;5111536;28;20700;-77
2023/04/06 08:47:19;;;;;;;15.30;10.27;;;;;;;;;;5111656;28;20322;-77
2023/04/06 08:49:47;;;;;;;12.63;9.77;;;;;;;;;;5111447;28;20278;-78
2023/04/06 08:52:17;;;;;;;11.83;9.83;;;;;;;;;;5111624;28;20243;-79
2023/04/06 08:54:44;;;;;;;14.73;9.77;;;;;;;;;;5111337;28;20239;-79
2023/04/06 08:57:11;;;;;;;11.00;9.83;;;;;;;;;;5111520;28;20614;-79
2023/04/06 08:59:39;;;;;;;12.40;9.57;;;;;;;;;;5111608;28;20298;-79
2023/04/06 09:02:06;;;;;;;12.23;9.50;;;;;;;;;;5111455;28;20706;-79
2023/04/06 09:04:34;;;;;;;12.80;9.17;;;;;;;;;;5110944;28;20221;-78
2023/04/06 09:07:02;;;;;;;12.57;9.87;;;;;;;;;;5111480;28;20273;-79
2023/04/06 09:09:30;;;;;;;11.97;9.10;;;;;;;;;;5110866;28;20193;-79
2023/04/06 09:12:03;;;;;;;11.40;8.57;;;;;;;;;;5111359;28;20619;-78
2023/04/06 09:14:37;;;;;;;10.47;8.17;;;;;;;;;;5111544;28;20206;-79
2023/04/06 09:17:04;;;;;;;9.47;7.50;;;;;;;;;;5111466;28;20284;-79
2023/04/06 09:19:31;;;;;;;10.23;8.07;;;;;;;;;;5110911;28;20253;-79
2023/04/06 09:22:06;;;;;;;8.73;7.10;;;;;;;;;;5111032;28;20221;-80
2023/04/06 09:24:45;;;;;;;12.90;8.03;;;;;;;;;;5111473;28;20200;-80
2023/04/06 09:27:12;;;;;;;9.23;7.93;;;;;;;;;;5112169;28;20726;-79
2023/04/06 09:29:39;;;;;;;8.63;7.73;;;;;;;;;;5114967;28;20251;-78
2023/04/06 09:32:07;;;;;;;9.17;7.90;;;;;;;;;;5114977;28;20694;-79
2023/04/06 09:34:35;;;;;;;9.07;7.53;;;;;;;;;;5114943;28;20251;-78
2023/04/06 09:37:02;;;;;;;11.63;8.80;;;;;;;;;;5115279;28;20214;-79
2023/04/06 09:39:31;;;;;;;11.07;8.07;;;;;;;;;;5114574;28;20225;-79
2023/04/06 09:42:00;;;;;;;10.13;8.10;;;;;;;;;;5115410;28;20198;-79
2023/04/06 09:44:27;;;;;;;11.87;8.43;;;;;;;;;;5114636;28;20197;-79
2023/04/06 09:46:55;;;;;;;9.97;8.73;;;;;;;;;;5114267;28;20197;-80
2023/04/06 09:49:22;;;;;;;10.70;8.20;;;;;;;;;;5114618;28;20204;-78
2023/04/06 09:51:55;;;;;;;10.57;8.73;;;;;;;;;;5114509;28;20194;-79
2023/04/06 09:54:23;;;;;;;10.53;8.53;;;;;;;;;;5114514;28;20243;-80
2023/04/06 09:56:52;;;;;;;10.97;8.80;;;;;;;;;;5114479;28;20646;-79
2023/04/06 09:59:23;;;;;;;10.17;9.07;;;;;;;;;;5114206;28;20298;-79
2023/04/06 10:01:53;;;;;;;11.77;8.37;;;;;;;;;;5113838;28;20190;-78
2023/04/06 10:04:29;;;;;;;9.67;8.67;;;;;;;;;;5114634;28;20198;-79
2023/04/06 10:06:57;;;;;;;12.10;9.43;;;;;;;;;;5114396;28;20193;-78
2023/04/06 10:09:26;;;;;;;12.70;9.50;;;;;;;;;;5114332;28;20272;-80
2023/04/06 10:11:54;;;;;;;10.20;8.80;;;;;;;;;;5114320;28;20244;-78
2023/04/06 10:14:22;;;;;;;9.80;8.80;;;;;;;;;;5113938;28;20857;-79
2023/04/06 10:16:50;;;;;;;10.33;8.23;;;;;;;;;;5113486;28;20662;-80
2023/04/06 10:19:20;;;;;;;9.53;8.47;;;;;;;;;;5114103;28;20230;-80
2023/04/06 10:21:50;;;;;;;8.97;7.93;;;;;;;;;;5113961;28;20246;-80
2023/04/06 10:24:18;;;;;;;9.00;6.80;;;;;;;;;;5111620;28;20233;-79
2023/04/06 10:26:45;;;;;;;9.57;6.57;;;;;;;;;;5114267;28;20220;-79
2023/04/06 10:29:12;;;;;;;8.27;6.27;;;;;;;;;;5113818;28;20226;-79
2023/04/06 10:31:45;;;;;;;8.87;6.10;;;;;;;;;;5113524;28;20194;-79
2023/04/06 10:34:12;;;;;;;6.13;4.77;;;;;;;;;;5103754;28;20205;-80
2023/04/06 10:36:39;;;;;;;6.83;5.40;;;;;;;;;;5113907;28;20212;-79
2023/04/06 10:39:07;;;;;;;6.17;4.93;;;;;;;;;;5113156;27;20318;-79
2023/04/06 10:41:35;;;;;;;6.63;5.40;;;;;;;;;;5113673;28;20210;-80
2023/04/06 10:44:02;;;;;;;7.30;4.40;;;;;;;;;;5113368;28;20202;-79
2023/04/06 10:46:31;;;;;;;4.97;4.37;;;;;;;;;;5113365;28;20221;-81
2023/04/06 10:49:00;;;;;;;5.90;4.70;;;;;;;;;;5113227;28;20257;-81
2023/04/06 10:51:29;;;;;;;5.33;3.40;;;;;;;;;;5115589;27;20685;-80
2023/04/06 10:53:56;;;;;;;4.40;3.30;;;;;;;;;;5110646;28;20682;-81
2023/04/06 10:56:26;;;;;;;3.83;3.10;;;;;;;;;;5116284;27;20201;-79
2023/04/06 10:58:55;;;;;;;4.10;2.70;;;;;;;;;;5109725;28;20218;-79
2023/04/06 11:01:24;;;;;;;2.72;2.50;;;;;;;;;;5111555;28;20192;-80
2023/04/06 11:03:53;;;;;;;4.05;2.33;;;;;;;;;;5112707;28;20543;-81
2023/04/06 11:06:22;;;;;;;2.97;1.70;;;;;;;;;;5112950;28;20193;-81
2023/04/06 11:08:50;;;;;;;2.72;1.42;;;;;;;;;;5113232;28;20674;-81
2023/04/06 11:11:19;;;;;;;3.22;1.80;;;;;;;;;;5113766;27;20236;-81
2023/04/06 11:13:46;;;;;;;3.90;1.67;;;;;;;;;;5112954;27;20262;-81
2023/04/06 11:16:14;;;;;;;3.40;1.92;;;;;;;;;;5112968;28;20246;-80
2023/04/06 11:18:51;;;;;;;3.90;2.30;;;;;;;;;;5126470;27;20217;-81
2023/04/06 11:21:19;;;;;;;3.28;2.00;;;;;;;;;;5133101;27;20241;-78
2023/04/06 11:23:47;;;;;;;3.58;1.60;;;;;;;;;;5132358;27;20657;-79
2023/04/06 11:26:15;;;;;;;3.00;1.80;;;;;;;;;;5125126;27;20266;-79
2023/04/06 11:28:43;;;;;;;3.92;1.70;;;;;;;;;;5132408;27;20612;-78
2023/04/06 11:31:10;;;;;;;3.55;1.90;;;;;;;;;;5127756;27;20746;-79
2023/04/06 11:33:38;;;;;;;4.63;1.67;;;;;;;;;;5132824;27;20713;-78
2023/04/06 11:36:06;;;;;;;3.05;1.60;;;;;;;;;;5133026;27;20196;-80
2023/04/06 11:38:34;;;;;;;3.58;2.03;;;;;;;;;;5132812;27;20622;-79
2023/04/06 11:41:03;;;;;;;2.95;1.75;;;;;;;;;;5132731;27;20614;-79
2023/04/06 11:43:31;;;;;;;4.35;2.15;;;;;;;;;;5132111;27;20650;-79
2023/04/06 11:46:02;;;;;;;3.22;1.60;;;;;;;;;;5132826;27;20611;-80
2023/04/06 11:48:29;;;;;;;2.70;1.77;;;;;;;;;;5120348;27;20316;-79
2023/04/06 11:50:58;;;;;;;4.05;1.70;;;;;;;;;;5112533;27;20575;-79
2023/04/06 11:53:25;;;;;;;4.60;2.00;;;;;;;;;;5110981;27;20298;-80
2023/04/06 11:55:53;;;;;;;4.57;1.70;;;;;;;;;;5111574;28;20196;-81
2023/04/06 11:58:21;;;;;;;3.33;1.30;;;;;;;;;;5115757;27;20197;-80
2023/04/06 12:00:48;;;;;;;2.90;1.70;;;;;;;;;;5121372;27;20257;-80
2023/04/06 12:03:16;;;;;;;4.25;1.50;;;;;;;;;;5128469;27;20196;-80
2023/04/06 12:05:43;;;;;;;4.25;1.70;;;;;;;;;;5124424;27;20262;-81
2023/04/06 12:08:10;;;;;;;4.32;1.70;;;;;;;;;;5111641;28;20206;-80
2023/04/06 12:10:37;;;;;;;5.20;1.50;;;;;;;;;;5124485;27;20197;-81
2023/04/06 12:13:05;;;;;;;2.95;1.42;;;;;;;;;;5111074;27;20266;-81
2023/04/06 12:15:34;;;;;;;2.10;1.27;;;;;;;;;;5110476;27;20193;-80
2023/04/06 12:18:01;;;;;;;3.70;1.40;;;;;;;;;;5115025;27;20194;-80
2023/04/06 12:20:28;;;;;;;6.25;1.90;;;;;;;;;;5128272;27;20248;-80
2023/04/06 12:22:56;;;;;;;3.38;1.35;;;;;;;;;;5108983;28;20733;-81
2023/04/06 12:25:23;;;;;;;3.60;1.52;;;;;;;;;;5119227;27;20197;-81
2023/04/06 12:27:50;;;;;;;3.85;1.17;;;;;;;;;;5120272;27;20251;-80
2023/04/06 12:30:17;;;;;;;5.07;1.80;;;;;;;;;;5122127;28;20194;-80
2023/04/06 12:32:46;;;;;;;1.95;1.20;;;;;;;;;;5111052;28;20189;-81
2023/04/06 12:35:15;;;;;;;3.38;1.60;;;;;;;;;;5112915;27;20194;-81
2023/04/06 12:37:43;;;;;;;5.40;1.45;;;;;;;;;;5132016;28;20657;-81
2023/04/06 12:40:11;;;;;;;5.35;2.88;;;;;;;;;;5114092;28;20709;-81
2023/04/06 12:42:40;;;;;;;3.15;1.42;;;;;;;;;;5111008;28;20662;-80
2023/04/06 12:45:08;;;;;;;2.25;1.20;;;;;;;;;;5111757;28;20318;-81
2023/04/06 12:47:37;;;;;;;6.72;1.98;;;;;;;;;;5111431;28;20233;-82
2023/04/06 12:50:06;;;;;;;5.18;1.42;;;;;;;;;;5111816;28;20226;-80
2023/04/06 12:52:35;;;;;;;4.22;1.10;;;;;;;;;;5111522;28;20193;-80
2023/04/06 12:55:02;;;;;;;2.05;1.10;;;;;;;;;;5111752;28;20194;-80
2023/04/06 12:57:30;;;;;;;3.60;1.47;;;;;;;;;;5090699;28;20229;-79
2023/04/06 12:59:58;;;;;;;2.25;1.15;;;;;;;;;;5091134;28;20643;-79
2023/04/06 13:02:25;;;;;;;5.25;1.50;;;;;;;;;;5092535;28;20610;-79
2023/04/06 13:04:53;;;;;;;3.90;1.50;;;;;;;;;;5098908;27;20209;-80
2023/04/06 13:07:21;;;;;;;3.72;1.65;;;;;;;;;;5117415;27;20212;-80
2023/04/06 13:09:49;;;;;;;4.17;2.10;;;;;;;;;;5114869;28;20289;-81
2023/04/06 13:12:16;;;;;;;4.60;1.87;;;;;;;;;;5116944;27;20240;-79
2023/04/06 13:14:44;;;;;;;3.50;1.93;;;;;;;;;;5115110;28;20246;-80
2023/04/06 13:17:11;;;;;;;4.10;2.03;;;;;;;;;;5117769;27;20260;-80
2023/04/06 13:19:40;;;;;;;4.27;2.10;;;;;;;;;;5135726;27;20225;-80
2023/04/06 13:22:07;;;;;;;3.83;2.20;;;;;;;;;;5114318;27;20193;-80
2023/04/06 13:24:35;;;;;;;4.27;1.80;;;;;;;;;;5112803;27;20194;-79
2023/04/06 13:27:05;;;;;;;4.67;1.70;;;;;;;;;;5114929;28;20233;-79
2023/04/06 13:29:34;;;;;;;3.50;1.53;;;;;;;;;;5115692;27;20681;-80
2023/04/06 13:32:01;;;;;;;3.23;1.30;;;;;;;;;;5094269;28;20222;-80
2023/04/06 13:34:28;;;;;;;3.60;2.00;;;;;;;;;;5097090;28;20236;-81
2023/04/06 13:36:55;;;;;;;6.67;2.57;;;;;;;;;;5115169;28;20282;-79
2023/04/06 13:39:22;;;;;;;4.30;2.53;;;;;;;;;;5114639;28;20202;-80
2023/04/06 13:41:51;;;;;;;6.00;3.00;;;;;;;;;;5115207;28;20190;-78
2023/04/06 13:44:18;;;;;;;6.30;3.20;;;;;;;;;;5113984;28;20235;-81
2023/04/06 13:46:46;;;;;;;5.07;3.20;;;;;;;;;;5105295;28;20266;-81
2023/04/06 13:49:13;;;;;;;5.40;3.23;;;;;;;;;;5109550;28;20200;-81
2023/04/06 13:51:41;;;;;;;4.87;2.63;;;;;;;;;;5106628;28;20190;-80
2023/04/06 13:54:08;;;;;;;9.07;2.93;;;;;;;;;;5114564;28;20202;-80
2023/04/06 13:56:35;;;;;;;4.57;2.70;;;;;;;;;;5113380;28;20225;-80
2023/04/06 13:59:04;;;;;;;5.40;2.90;;;;;;;;;;5102811;28;20285;-80
2023/04/06 14:01:31;;;;;;;4.70;2.87;;;;;;;;;;5111137;28;20784;-80
2023/04/06 14:03:58;;;;;;;5.97;2.70;;;;;;;;;;5113395;28;20231;-79
2023/04/06 14:06:26;;;;;;;6.17;2.37;;;;;;;;;;5113087;28;20272;-81
2023/04/06 14:08:53;;;;;;;3.80;2.20;;;;;;;;;;5113894;28;20198;-81
2023/04/06 14:11:20;;;;;;;4.00;2.13;;;;;;;;;;5107460;28;20208;-81
2023/04/06 14:13:47;;;;;;;3.35;2.05;;;;;;;;;;5112789;28;20225;-80
2023/04/06 14:16:19;;;;;;;4.85;2.30;;;;;;;;;;5113289;28;20217;-80
2023/04/06 14:18:46;;;;;;;4.63;2.13;;;;;;;;;;5112995;28;20205;-82
2023/04/06 14:21:15;;;;;;;4.85;2.20;;;;;;;;;;5113129;27;20254;-83
2023/04/06 14:23:42;;;;;;;5.43;2.55;;;;;;;;;;5112934;28;20609;-81
2023/04/06 14:26:09;;;;;;;8.70;2.07;;;;;;;;;;5118770;27;20296;-80
2023/04/06 14:28:37;;;;;;;3.17;1.47;;;;;;;;;;5112225;27;20289;-81